Time;durP1;ratioP1;P1;durP2;ratioP2;P2;SDS_P1;SDS_P2;PMS_P1;PMS_P2;Temp;Humidity;BMP_temperature;BMP_pressure;BME280_temperature;BME280_humidity;BME280_pressure;Samples;Min_cycle;Max_cycle;Signal;HPM_P1;HPM_P2
2022/06/25 00:01:15;;;;;;;14.20;1.05;;;20.40;75.50;;;;;;5025418;28;20071;-73
2022/06/25 00:03:41;;;;;;;1.77;0.85;;;20.40;75.70;;;;;;5032702;28;20045;-71
2022/06/25 00:06:08;;;;;;;2.20;1.30;;;20.40;75.90;;;;;;5036230;28;20022;-71
2022/06/25 00:08:35;;;;;;;9.25;5.35;;;20.30;76.30;;;;;;5024176;28;20071;-70
2022/06/25 00:11:02;;;;;;;5.45;2.20;;;20.30;76.50;;;;;;5031237;28;20025;-70
2022/06/25 00:13:28;;;;;;;1.30;0.70;;;20.30;76.70;;;;;;5022995;28;20456;-72
2022/06/25 00:15:54;;;;;;;1.38;0.60;;;20.30;76.90;;;;;;5027830;28;20026;-69
2022/06/25 00:18:20;;;;;;;2.30;1.58;;;20.30;77.00;;;;;;5030026;28;20079;-70
2022/06/25 00:20:46;;;;;;;5.97;2.25;;;20.30;77.10;;;;;;5012451;28;20033;-71
2022/06/25 00:23:13;;;;;;;2.38;1.02;;;20.30;77.10;;;;;;5015033;28;20471;-69
2022/06/25 00:25:39;;;;;;;2.35;0.82;;;20.30;77.00;;;;;;5032204;28;20104;-73
2022/06/25 00:28:05;;;;;;;2.85;0.60;;;20.30;76.70;;;;;;5032207;28;20093;-73
2022/06/25 00:30:31;;;;;;;1.55;0.65;;;20.30;76.70;;;;;;5030903;28;20034;-71
2022/06/25 00:32:57;;;;;;;2.88;0.80;;;20.20;76.50;;;;;;5030687;28;20547;-73
2022/06/25 00:35:23;;;;;;;1.00;0.57;;;20.20;76.60;;;;;;5030187;28;20160;-71
2022/06/25 00:37:49;;;;;;;2.15;0.60;;;20.20;76.40;;;;;;5031996;28;20017;-71
2022/06/25 00:40:15;;;;;;;3.13;0.45;;;20.20;76.20;;;;;;5031418;28;20017;-70
2022/06/25 00:42:43;;;;;;;1.25;0.75;;;20.20;76.00;;;;;;5032144;28;20033;-69
2022/06/25 00:45:09;;;;;;;1.75;0.70;;;20.20;75.70;;;;;;5030896;28;20084;-67
2022/06/25 00:47:35;;;;;;;1.85;0.30;;;20.20;75.60;;;;;;5032027;28;20030;-66
2022/06/25 00:50:01;;;;;;;0.50;0.50;;;20.10;75.40;;;;;;5032446;28;20032;-72
2022/06/25 00:52:31;;;;;;;2.35;1.00;;;20.10;75.00;;;;;;5035805;28;20032;-66
2022/06/25 00:55:10;;;;;;;0.85;0.40;;;20.10;75.20;;;;;;5030519;28;20450;-68
2022/06/25 00:57:39;;;;;;;1.25;0.50;;;20.10;75.10;;;;;;5028411;28;20391;-75
2022/06/25 01:00:09;;;;;;;0.65;0.30;;;20.10;74.90;;;;;;5034366;28;20022;-70
2022/06/25 01:02:36;;;;;;;2.47;0.73;;;20.10;75.00;;;;;;5034123;28;20017;-69
2022/06/25 01:05:10;;;;;;;1.85;0.45;;;20.10;75.50;;;;;;5034167;28;20029;-68
2022/06/25 01:07:36;;;;;;;;;;;20.10;75.20;;;;;;5034783;28;20036;-71
2022/06/25 01:10:03;;;;;;;0.50;0.40;;;20.10;73.90;;;;;;5034005;28;20004;-66
2022/06/25 01:12:28;;;;;;;1.13;0.40;;;20.10;75.00;;;;;;5035206;28;20052;-69
2022/06/25 01:15:09;;;;;;;1.00;0.28;;;20.10;74.90;;;;;;5035037;28;20506;-71
2022/06/25 01:17:49;;;;;;;0.85;0.40;;;20.10;74.70;;;;;;5034899;28;20013;-72
2022/06/25 01:20:16;;;;;;;1.02;0.28;;;20.10;73.90;;;;;;5033171;28;20040;-72
2022/06/25 01:22:42;;;;;;;1.00;0.50;;;20.00;74.10;;;;;;5034681;28;20128;-68
2022/06/25 01:25:09;;;;;;;0.85;0.40;;;20.00;74.10;;;;;;5034804;28;20514;-70
2022/06/25 01:27:36;;;;;;;0.30;0.30;;;20.00;74.00;;;;;;5034656;28;20390;-71
2022/06/25 01:30:02;;;;;;;0.82;0.38;;;20.00;73.80;;;;;;5034476;28;20021;-72
2022/06/25 01:32:28;;;;;;;0.30;0.30;;;20.00;73.60;;;;;;5032962;28;20037;-68
2022/06/25 01:34:54;;;;;;;1.55;0.52;;;20.00;73.50;;;;;;5034013;28;20029;-67
2022/06/25 01:37:21;;;;;;;0.43;0.30;;;20.00;73.60;;;;;;5033347;28;20032;-71
2022/06/25 01:39:50;;;;;;;0.40;0.30;;;20.00;73.50;;;;;;5034513;28;20017;-72
2022/06/25 01:45:00;;;;;;;1.58;0.20;;;20.00;73.30;;;;;;5034539;28;20482;-68
2022/06/25 01:47:26;;;;;;;1.38;0.40;;;20.00;73.10;;;;;;5034435;28;20053;-70
2022/06/25 01:49:52;;;;;;;3.53;0.40;;;20.00;72.60;;;;;;5034372;28;20395;-69
2022/06/25 01:52:17;;;;;;;1.00;0.20;;;20.00;73.00;;;;;;5032960;28;20369;-66
2022/06/25 01:54:43;;;;;;;0.85;0.30;;;20.00;72.70;;;;;;5031029;28;20033;-71
2022/06/25 01:57:09;;;;;;;0.73;0.40;;;20.00;72.80;;;;;;5034250;28;20026;-69
2022/06/25 01:59:35;;;;;;;0.55;0.40;;;20.00;73.10;;;;;;5034566;28;20463;-69
2022/06/25 02:02:01;;;;;;;1.55;0.40;;;20.00;73.20;;;;;;5033135;28;20387;-71
2022/06/25 02:04:26;;;;;;;0.35;0.30;;;20.10;73.10;;;;;;5034272;28;20467;-69
2022/06/25 02:06:52;;;;;;;2.15;0.50;;;20.10;73.00;;;;;;5032779;28;20557;-72
2022/06/25 02:09:18;;;;;;;1.65;0.45;;;20.10;73.10;;;;;;5034036;28;20044;-69
2022/06/25 02:11:44;;;;;;;1.55;0.40;;;20.10;73.30;;;;;;5032615;28;20080;-70
2022/06/25 02:14:09;;;;;;;0.52;0.40;;;20.20;73.00;;;;;;5032550;28;20055;-67
2022/06/25 02:16:35;;;;;;;1.08;0.30;;;20.10;72.50;;;;;;5033957;28;20029;-66
2022/06/25 02:19:01;;;;;;;0.65;0.20;;;20.10;72.50;;;;;;5031831;28;20021;-71
2022/06/25 02:21:27;;;;;;;1.63;0.63;;;20.20;72.50;;;;;;5033203;28;20040;-68
2022/06/25 02:23:52;;;;;;;0.50;0.30;;;20.20;72.60;;;;;;5033278;28;20040;-71
2022/06/25 02:26:18;;;;;;;0.85;0.40;;;20.20;72.60;;;;;;5033357;28;20080;-68
2022/06/25 02:28:44;;;;;;;3.30;0.55;;;20.20;72.40;;;;;;5033042;28;20048;-74
2022/06/25 02:31:10;;;;;;;0.70;0.20;;;20.20;72.50;;;;;;5031979;28;20021;-66
2022/06/25 02:33:36;;;;;;;2.42;0.70;;;20.30;72.70;;;;;;5033620;28;20034;-69
2022/06/25 02:36:01;;;;;;;2.00;0.40;;;20.30;72.30;;;;;;5033589;28;20018;-68
2022/06/25 02:38:28;;;;;;;0.65;0.30;;;20.30;71.90;;;;;;5033401;28;20029;-74
2022/06/25 02:40:54;;;;;;;1.40;0.40;;;20.20;71.70;;;;;;5033336;28;20152;-70
2022/06/25 02:43:19;;;;;;;1.30;0.40;;;20.20;71.70;;;;;;5034414;28;20493;-67
2022/06/25 02:45:45;;;;;;;0.38;0.22;;;20.20;71.40;;;;;;5046262;28;20052;-72
2022/06/25 02:48:11;;;;;;;0.77;0.35;;;20.20;71.80;;;;;;5052126;28;20024;-69
2022/06/25 02:50:37;;;;;;;1.15;0.45;;;20.20;71.60;;;;;;5013439;28;20022;-67
2022/06/25 02:53:03;;;;;;;2.20;0.45;;;20.30;71.80;;;;;;5017407;28;20441;-67
2022/06/25 03:00:57;;;;;;;0.98;0.28;;;20.30;71.00;;;;;;5037671;28;19912;-65
2022/06/25 03:03:23;;;;;;;1.08;0.50;;;20.20;70.30;;;;;;5053125;28;20021;-67
2022/06/25 03:05:49;;;;;;;0.50;0.40;;;20.20;70.50;;;;;;5052842;28;20048;-71
2022/06/25 03:08:16;;;;;;;0.38;0.30;;;20.20;71.00;;;;;;5050321;28;20032;-66
2022/06/25 03:10:42;;;;;;;1.60;0.50;;;20.20;70.70;;;;;;5033068;28;20041;-71
2022/06/25 03:13:08;;;;;;;1.20;0.50;;;20.20;70.90;;;;;;5031802;28;20475;-68
2022/06/25 03:15:34;;;;;;;1.10;0.50;;;20.20;70.90;;;;;;5032829;28;20036;-68
2022/06/25 03:17:59;;;;;;;2.80;0.50;;;20.20;70.90;;;;;;5032699;28;20026;-70
2022/06/25 03:20:25;;;;;;;0.60;0.30;;;20.20;70.60;;;;;;5031881;28;20475;-69
2022/06/25 03:22:51;;;;;;;3.15;0.40;;;20.20;70.90;;;;;;5032631;28;20033;-68
2022/06/25 03:25:17;;;;;;;0.52;0.30;;;20.20;71.00;;;;;;5032593;28;20030;-71
2022/06/25 03:27:42;;;;;;;3.63;0.32;;;20.20;71.10;;;;;;5032481;28;20040;-71
2022/06/25 03:30:08;;;;;;;0.88;0.43;;;20.20;71.20;;;;;;5031760;28;20041;-68
2022/06/25 03:32:34;;;;;;;0.63;0.40;;;20.20;71.10;;;;;;5032469;28;20052;-69
2022/06/25 03:35:00;;;;;;;0.88;0.50;;;20.20;71.00;;;;;;5030973;28;20026;-68
2022/06/25 03:37:26;;;;;;;0.57;0.47;;;20.20;71.10;;;;;;5032397;28;20025;-69
2022/06/25 03:39:51;;;;;;;3.60;0.60;;;20.20;71.30;;;;;;5031157;28;20387;-69
2022/06/25 03:42:17;;;;;;;0.30;0.30;;;20.20;71.40;;;;;;5030501;28;20101;-71
2022/06/25 03:44:43;;;;;;;0.95;0.50;;;20.20;71.20;;;;;;5032286;28;20087;-70
2022/06/25 03:47:09;;;;;;;1.05;0.57;;;20.20;71.30;;;;;;5032571;28;20514;-71
2022/06/25 03:49:34;;;;;;;0.75;0.50;;;20.20;71.30;;;;;;5032484;28;20034;-74
2022/06/25 03:52:01;;;;;;;3.00;0.93;;;20.20;71.20;;;;;;5032416;28;20072;-66
2022/06/25 03:54:27;;;;;;;1.80;0.63;;;20.20;71.20;;;;;;5030976;28;20033;-67
2022/06/25 03:56:54;;;;;;;0.40;0.40;;;20.20;71.10;;;;;;5032369;28;20022;-67
2022/06/25 03:59:20;;;;;;;0.45;0.40;;;20.20;71.50;;;;;;5031737;28;20010;-70
2022/06/25 04:01:46;;;;;;;0.60;0.40;;;20.20;71.20;;;;;;5031769;28;20033;-71
2022/06/25 04:04:11;;;;;;;0.50;0.47;;;20.30;71.50;;;;;;5032557;28;20021;-71
2022/06/25 04:06:37;;;;;;;1.63;0.50;;;20.30;71.50;;;;;;5032453;28;20052;-69
2022/06/25 04:09:04;;;;;;;0.77;0.40;;;20.30;71.50;;;;;;5031885;28;20037;-69
2022/06/25 04:11:29;;;;;;;1.08;0.55;;;20.30;71.50;;;;;;5032414;28;20357;-69
2022/06/25 04:13:56;;;;;;;1.77;0.50;;;20.30;71.60;;;;;;5032412;28;20075;-70
2022/06/25 04:16:22;;;;;;;0.25;0.25;;;20.30;71.70;;;;;;5032392;28;20096;-69
2022/06/25 04:18:48;;;;;;;2.92;0.60;;;20.40;71.40;;;;;;5031576;28;20384;-71
2022/06/25 04:21:14;;;;;;;1.02;0.55;;;20.30;70.70;;;;;;5032373;28;20061;-70
2022/06/25 04:23:40;;;;;;;2.25;0.90;;;20.40;71.20;;;;;;5031076;28;20025;-66
2022/06/25 04:26:07;;;;;;;1.27;0.70;;;20.40;71.40;;;;;;5034883;28;20375;-73
2022/06/25 04:31:17;;;;;;;1.45;0.75;;;20.40;71.50;;;;;;5035551;28;20040;-74
2022/06/25 04:33:43;;;;;;;1.20;0.63;;;20.40;71.50;;;;;;5035956;28;20029;-73
2022/06/25 04:36:09;;;;;;;2.65;0.68;;;20.40;71.50;;;;;;5035370;28;20128;-67
2022/06/25 04:38:34;;;;;;;2.50;0.77;;;20.50;71.10;;;;;;5033966;28;20422;-70
2022/06/25 04:41:00;;;;;;;3.08;0.52;;;20.50;71.10;;;;;;5036041;28;20026;-71
2022/06/25 04:43:26;;;;;;;3.17;0.50;;;20.50;71.30;;;;;;5035946;28;20124;-71
2022/06/25 04:45:52;;;;;;;1.52;0.75;;;20.50;71.00;;;;;;5035720;28;20049;-72
2022/06/25 04:48:17;;;;;;;0.77;0.50;;;20.50;71.10;;;;;;5033844;28;20532;-72
2022/06/25 04:50:44;;;;;;;0.68;0.60;;;20.60;71.30;;;;;;5035847;28;20021;-67
2022/06/25 04:53:10;;;;;;;3.63;0.80;;;20.60;71.40;;;;;;5034153;28;20044;-72
2022/06/25 04:55:36;;;;;;;2.13;0.60;;;20.60;70.50;;;;;;5035635;28;20040;-69
2022/06/25 04:58:02;;;;;;;1.13;0.60;;;20.60;70.60;;;;;;5035694;28;20018;-72
2022/06/25 05:00:28;;;;;;;3.25;0.77;;;20.60;70.60;;;;;;5035631;28;20025;-69
2022/06/25 05:02:54;;;;;;;0.90;0.50;;;20.60;69.90;;;;;;5034183;28;20025;-71
2022/06/25 05:05:19;;;;;;;4.32;0.55;;;20.60;70.10;;;;;;5034590;28;20025;-69
2022/06/25 05:07:45;;;;;;;2.28;0.70;;;20.60;70.30;;;;;;5035523;28;20108;-72
2022/06/25 05:10:11;;;;;;;6.57;1.55;;;20.60;70.10;;;;;;5035810;28;20093;-69
2022/06/25 05:15:21;;;;;;;1.50;0.57;;;20.60;70.30;;;;;;5035404;28;20036;-71
2022/06/25 05:17:48;;;;;;;2.80;0.70;;;20.60;70.60;;;;;;5019041;28;20034;-70
2022/06/25 05:20:13;;;;;;;1.27;0.70;;;20.60;70.40;;;;;;5016271;28;20432;-73
2022/06/25 05:22:39;;;;;;;1.98;1.38;;;20.60;70.50;;;;;;5035061;28;20025;-72
2022/06/25 05:25:06;;;;;;;1.00;0.73;;;20.60;70.50;;;;;;5035035;28;20093;-69
2022/06/25 05:27:32;;;;;;;0.55;0.55;;;20.60;70.50;;;;;;5035126;28;20386;-72
2022/06/25 05:29:57;;;;;;;1.58;0.80;;;20.60;70.60;;;;;;5033269;28;20100;-69
2022/06/25 05:32:23;;;;;;;1.17;0.57;;;20.70;70.90;;;;;;5035036;28;20482;-69
2022/06/25 05:34:49;;;;;;;2.33;0.68;;;20.70;71.00;;;;;;5034809;28;20068;-74
2022/06/25 05:37:15;;;;;;;2.15;0.60;;;20.80;70.90;;;;;;5034661;28;20180;-70
2022/06/25 05:39:41;;;;;;;1.48;0.60;;;20.80;70.40;;;;;;5033067;28;20033;-67
2022/06/25 05:42:07;;;;;;;3.28;0.73;;;20.80;70.00;;;;;;5033337;28;20139;-68
2022/06/25 05:44:33;;;;;;;1.58;0.80;;;20.90;70.10;;;;;;5034660;28;20143;-70
2022/06/25 05:46:58;;;;;;;1.10;0.50;;;20.90;70.20;;;;;;5034792;28;20530;-72
2022/06/25 05:49:24;;;;;;;1.95;0.88;;;21.00;70.30;;;;;;5034031;28;20030;-71
2022/06/25 05:51:50;;;;;;;2.10;0.68;;;21.00;69.90;;;;;;5034697;28;20037;-71
2022/06/25 05:54:16;;;;;;;1.00;0.50;;;21.00;69.70;;;;;;5033632;28;20030;-69
2022/06/25 05:56:42;;;;;;;2.30;0.80;;;21.10;70.10;;;;;;5034567;28;20025;-72
2022/06/25 05:59:08;;;;;;;0.82;0.40;;;21.20;70.10;;;;;;5034629;28;20089;-68
2022/06/25 06:01:34;;;;;;;1.75;0.88;;;21.20;70.10;;;;;;5034446;28;20045;-69
2022/06/25 06:04:00;;;;;;;5.97;1.02;;;21.30;69.70;;;;;;5034498;28;20045;-72
2022/06/25 06:06:26;;;;;;;1.88;0.70;;;21.40;70.40;;;;;;5032570;28;20379;-69
2022/06/25 06:08:51;;;;;;;4.10;0.85;;;21.50;69.80;;;;;;5034332;28;20037;-72
2022/06/25 06:11:17;;;;;;;0.98;0.70;;;21.60;69.40;;;;;;5034278;28;20040;-69
2022/06/25 06:13:43;;;;;;;1.13;0.63;;;21.70;69.60;;;;;;5034023;28;20036;-68
2022/06/25 06:16:09;;;;;;;0.90;0.80;;;21.80;69.50;;;;;;5033559;28;20517;-70
2022/06/25 06:18:34;;;;;;;1.95;0.68;;;21.90;69.30;;;;;;5033114;28;20479;-72
2022/06/25 06:21:00;;;;;;;0.70;0.70;;;22.00;68.80;;;;;;5034068;28;20467;-71
2022/06/25 06:23:26;;;;;;;1.30;0.60;;;22.00;68.20;;;;;;5034205;28;20014;-72
2022/06/25 06:25:52;;;;;;;1.38;0.70;;;22.10;68.20;;;;;;5034053;28;20452;-72
2022/06/25 06:28:17;;;;;;;1.30;0.60;;;22.20;69.20;;;;;;5033358;28;20384;-71
2022/06/25 06:30:43;;;;;;;1.30;0.47;;;22.30;67.50;;;;;;5031538;28;20022;-69
2022/06/25 06:33:09;;;;;;;0.77;0.60;;;22.40;67.80;;;;;;5033060;28;20098;-72
2022/06/25 06:35:35;;;;;;;4.78;0.63;;;22.40;66.80;;;;;;5033770;28;20030;-71
2022/06/25 06:38:01;;;;;;;4.78;0.65;;;22.50;67.20;;;;;;5033786;28;20033;-71
2022/06/25 06:40:27;;;;;;;3.00;0.60;;;22.50;66.50;;;;;;5033749;28;20022;-66
2022/06/25 06:42:52;;;;;;;1.52;0.63;;;22.60;67.10;;;;;;5033708;28;20029;-73
2022/06/25 06:45:18;;;;;;;2.78;0.70;;;22.60;66.00;;;;;;5032657;28;20049;-73
2022/06/25 06:47:44;;;;;;;2.22;0.70;;;22.70;66.10;;;;;;5031693;28;20036;-71
2022/06/25 06:50:13;;;;;;;1.60;0.70;;;22.70;65.60;;;;;;5033571;28;20021;-68
2022/06/25 06:52:38;;;;;;;1.85;0.80;;;22.80;65.30;;;;;;5031593;28;20036;-69
2022/06/25 06:55:05;;;;;;;1.48;0.75;;;22.70;65.00;;;;;;5033352;28;20395;-71
2022/06/25 06:57:34;;;;;;;2.75;0.60;;;22.80;65.90;;;;;;5032524;28;20029;-69
2022/06/25 07:00:04;;;;;;;0.65;0.57;;;22.80;66.00;;;;;;5033175;28;20025;-68
2022/06/25 07:02:30;;;;;;;1.50;0.73;;;22.80;66.20;;;;;;5033377;28;20025;-67
2022/06/25 07:04:56;;;;;;;2.53;0.98;;;22.90;65.60;;;;;;5028637;28;20391;-69
2022/06/25 07:07:22;;;;;;;4.10;0.63;;;22.90;65.50;;;;;;5012323;28;20089;-72
2022/06/25 07:09:48;;;;;;;1.00;0.80;;;22.90;65.30;;;;;;5029925;28;20028;-71
2022/06/25 07:12:14;;;;;;;0.63;0.60;;;22.90;64.70;;;;;;5032544;28;20101;-69
2022/06/25 07:14:39;;;;;;;1.48;0.50;;;22.90;64.10;;;;;;5032982;28;20032;-69
2022/06/25 07:17:05;;;;;;;2.30;0.90;;;22.90;64.30;;;;;;5033060;28;20033;-68
2022/06/25 07:19:31;;;;;;;0.95;0.50;;;22.90;64.60;;;;;;5032351;28;20033;-71
2022/06/25 07:21:57;;;;;;;2.28;0.80;;;22.90;64.00;;;;;;5030706;28;20033;-69
2022/06/25 07:24:23;;;;;;;0.73;0.50;;;22.90;64.90;;;;;;5031628;28;20028;-68
2022/06/25 07:26:49;;;;;;;1.52;0.70;;;22.90;64.70;;;;;;5032960;28;20033;-74
2022/06/25 07:29:15;;;;;;;1.30;0.70;;;22.90;65.20;;;;;;5032801;28;20114;-67
2022/06/25 07:31:42;;;;;;;0.73;0.55;;;23.00;65.60;;;;;;5032805;28;20072;-72
2022/06/25 07:34:07;;;;;;;1.25;0.60;;;23.00;65.30;;;;;;5031654;28;20029;-72
2022/06/25 07:36:33;;;;;;;2.53;0.50;;;23.10;65.80;;;;;;5032775;28;20029;-69
2022/06/25 07:39:03;;;;;;;2.10;0.88;;;23.10;65.10;;;;;;5032771;28;20026;-69
2022/06/25 07:41:28;;;;;;;1.67;0.80;;;23.20;65.10;;;;;;5032789;28;20044;-71
2022/06/25 07:43:54;;;;;;;3.08;0.77;;;23.20;65.30;;;;;;5032582;28;20475;-68
2022/06/25 07:46:21;;;;;;;1.20;0.70;;;23.30;65.70;;;;;;5032165;28;20037;-67
2022/06/25 07:48:46;;;;;;;1.98;0.90;;;23.40;65.10;;;;;;5031754;28;20530;-71
2022/06/25 07:53:57;;;;;;;1.00;0.70;;;23.50;63.90;;;;;;5032651;28;20043;-69
2022/06/25 07:56:23;;;;;;;1.25;0.43;;;23.60;64.70;;;;;;5032609;28;20022;-72
2022/06/25 07:58:49;;;;;;;1.70;0.93;;;23.70;63.10;;;;;;5033141;28;20049;-71
2022/06/25 08:01:15;;;;;;;2.13;0.73;;;23.70;63.10;;;;;;5035721;28;20087;-72
2022/06/25 08:03:41;;;;;;;1.15;0.63;;;23.70;63.50;;;;;;5036606;28;20047;-72
2022/06/25 08:06:07;;;;;;;5.88;0.80;;;23.70;63.00;;;;;;5036396;28;20029;-68
2022/06/25 08:08:33;;;;;;;0.88;0.70;;;23.80;63.70;;;;;;5036007;28;20030;-71
2022/06/25 08:10:59;;;;;;;1.45;0.60;;;23.80;63.10;;;;;;5036242;28;20025;-72
2022/06/25 08:13:26;;;;;;;3.05;0.90;;;23.80;63.80;;;;;;5035289;28;20026;-69
2022/06/25 08:15:53;;;;;;;5.28;0.75;;;23.90;63.60;;;;;;5036318;28;20026;-72
2022/06/25 08:18:20;;;;;;;0.85;0.70;;;24.00;63.60;;;;;;5034734;28;20087;-71
2022/06/25 08:20:46;;;;;;;1.10;0.70;;;24.10;63.80;;;;;;5036158;28;20026;-70
2022/06/25 08:23:11;;;;;;;0.90;0.55;;;24.20;64.30;;;;;;5036186;28;20387;-72
2022/06/25 08:25:37;;;;;;;1.15;0.80;;;24.30;63.60;;;;;;5034832;28;20033;-72
2022/06/25 08:28:03;;;;;;;1.08;0.80;;;24.40;62.00;;;;;;5034797;28;20037;-72
2022/06/25 08:30:29;;;;;;;5.55;0.80;;;24.40;61.40;;;;;;5034928;28;20037;-70
2022/06/25 08:32:55;;;;;;;2.08;0.63;;;24.50;60.50;;;;;;5031039;28;20029;-70
2022/06/25 08:35:22;;;;;;;1.65;0.80;;;24.50;61.30;;;;;;5031217;28;20402;-69
2022/06/25 08:37:49;;;;;;;0.80;0.60;;;24.60;61.30;;;;;;5033409;28;20479;-70
2022/06/25 08:40:20;;;;;;;1.45;0.75;;;24.70;60.90;;;;;;5034673;28;20045;-72
2022/06/25 08:42:49;;;;;;;17.75;1.25;;;24.70;60.70;;;;;;5032654;28;20104;-72
2022/06/25 08:45:16;;;;;;;5.50;1.05;;;24.80;60.70;;;;;;5031731;28;20045;-72
2022/06/25 08:47:50;;;;;;;5.50;0.90;;;24.80;60.10;;;;;;5035761;28;20026;-74
2022/06/25 08:50:21;;;;;;;1.25;0.82;;;24.90;60.10;;;;;;5025219;28;20475;-69
2022/06/25 08:52:55;;;;;;;1.23;0.70;;;25.00;60.20;;;;;;5032059;28;20037;-68
2022/06/25 08:55:34;;;;;;;1.83;0.82;;;25.00;60.20;;;;;;5035643;28;20044;-74
2022/06/25 08:58:01;;;;;;;3.20;0.80;;;25.10;60.30;;;;;;5035555;28;20152;-71
2022/06/25 09:00:30;;;;;;;1.15;0.70;;;25.20;59.80;;;;;;5035536;28;20017;-70
2022/06/25 09:02:56;;;;;;;2.10;0.63;;;25.30;58.80;;;;;;5034887;28;20028;-73
2022/06/25 09:05:27;;;;;;;2.88;0.80;;;25.40;58.60;;;;;;5034948;28;20025;-68
2022/06/25 09:07:55;;;;;;;1.73;0.80;;;25.50;59.60;;;;;;5034043;28;20026;-64
2022/06/25 09:10:23;;;;;;;1.15;0.70;;;25.60;59.70;;;;;;5029133;28;20048;-71
2022/06/25 09:12:54;;;;;;;1.40;0.80;;;25.70;60.00;;;;;;5021287;28;20022;-71
2022/06/25 09:15:46;;;;;;;1.27;0.95;;;25.80;58.90;;;;;;5033186;28;21586;-72
2022/06/25 09:18:14;;;;;;;1.17;0.88;;;26.00;58.60;;;;;;5020840;28;20030;-71
2022/06/25 09:21:08;;;;;;;2.47;0.90;;;26.10;57.10;;;;;;5032992;28;20036;-68
2022/06/25 09:24:00;;;;;;;1.33;0.80;;;26.20;58.00;;;;;;5033370;28;20136;-68
2022/06/25 09:26:26;;;;;;;1.48;0.70;;;26.40;58.10;;;;;;5034781;28;20022;-69
2022/06/25 09:28:52;;;;;;;3.17;0.90;;;26.60;58.40;;;;;;5032620;28;20576;-73
2022/06/25 09:31:34;;;;;;;3.25;0.70;;;26.80;58.10;;;;;;5034709;28;20018;-67
2022/06/25 09:34:05;;;;;;;1.73;0.90;;;27.00;56.10;;;;;;5022948;28;20384;-67
2022/06/25 09:36:31;;;;;;;2.30;0.70;;;27.20;56.40;;;;;;5031065;28;20052;-69
2022/06/25 09:38:57;;;;;;;0.82;0.63;;;27.40;55.10;;;;;;5034904;28;20022;-68
2022/06/25 09:41:24;;;;;;;2.90;1.00;;;27.50;55.00;;;;;;5034841;28;20434;-68
2022/06/25 09:43:51;;;;;;;8.65;0.90;;;27.60;54.20;;;;;;5034612;28;20032;-69
2022/06/25 09:46:18;;;;;;;1.10;0.80;;;27.70;52.80;;;;;;5034358;28;20045;-69
2022/06/25 09:48:45;;;;;;;1.20;0.60;;;27.80;52.50;;;;;;5032836;28;20379;-69
2022/06/25 09:51:12;;;;;;;2.15;0.85;;;27.90;54.70;;;;;;5032950;28;20045;-67
2022/06/25 09:53:54;;;;;;;4.47;0.93;;;28.10;56.30;;;;;;5033706;28;20067;-67
2022/06/25 09:56:22;;;;;;;0.82;0.57;;;28.20;53.20;;;;;;5034599;28;20491;-71
2022/06/25 09:58:49;;;;;;;1.98;0.90;;;28.30;54.30;;;;;;5033700;28;20037;-68
2022/06/25 10:01:17;;;;;;;1.60;0.80;;;28.40;53.40;;;;;;5030388;28;20094;-74
2022/06/25 10:03:44;;;;;;;1.45;0.85;;;28.50;50.80;;;;;;5034313;28;20079;-70
2022/06/25 10:06:15;;;;;;;3.40;1.38;;;28.60;52.40;;;;;;5023231;28;20025;-69
2022/06/25 10:08:50;;;;;;;0.98;0.88;;;28.70;51.30;;;;;;5032829;28;20108;-69
2022/06/25 10:11:22;;;;;;;0.80;0.73;;;28.70;51.30;;;;;;5034365;28;20026;-69
2022/06/25 10:13:49;;;;;;;1.17;1.00;;;28.80;51.00;;;;;;5032194;28;20032;-71
2022/06/25 10:16:19;;;;;;;3.70;0.70;;;28.90;51.20;;;;;;5030430;28;20101;-72
2022/06/25 10:18:47;;;;;;;3.08;0.88;;;29.00;51.30;;;;;;5031814;28;20033;-66
2022/06/25 10:21:13;;;;;;;3.10;0.88;;;29.00;51.50;;;;;;5033251;28;20029;-68
2022/06/25 10:23:40;;;;;;;2.15;0.70;;;29.20;51.00;;;;;;5032066;28;20026;-68
2022/06/25 10:26:07;;;;;;;2.85;0.88;;;29.30;49.70;;;;;;5033190;28;20036;-70
2022/06/25 10:28:35;;;;;;;1.20;0.80;;;29.50;50.90;;;;;;5033223;28;20053;-70
2022/06/25 10:31:06;;;;;;;1.13;0.57;;;29.60;50.20;;;;;;5033699;28;20022;-67
2022/06/25 10:33:50;;;;;;;1.98;0.70;;;29.70;48.40;;;;;;5032685;28;20056;-69
2022/06/25 10:36:16;;;;;;;1.10;0.80;;;29.80;48.80;;;;;;5031687;28;20364;-68
2022/06/25 10:38:42;;;;;;;2.60;0.80;;;30.00;50.60;;;;;;5033519;28;20029;-68
2022/06/25 10:43:58;;;;;;;0.95;0.80;;;30.20;48.00;;;;;;5031863;28;20579;-70
2022/06/25 10:46:34;;;;;;;1.73;0.65;;;30.20;47.30;;;;;;5025439;28;20542;-69
2022/06/25 10:49:10;;;;;;;1.02;0.88;;;30.30;48.10;;;;;;5031230;28;20053;-67
2022/06/25 10:51:38;;;;;;;3.65;1.52;;;30.30;46.90;;;;;;5032678;28;20027;-69
2022/06/25 10:54:07;;;;;;;2.17;0.98;;;30.20;46.60;;;;;;5013555;28;20113;-68
2022/06/25 10:56:45;;;;;;;2.17;0.55;;;30.10;44.60;;;;;;5021855;28;20486;-69
2022/06/25 10:59:46;;;;;;;3.08;1.58;;;30.00;45.20;;;;;;5024028;28;20036;-70
2022/06/25 11:02:14;;;;;;;2.45;0.88;;;29.90;47.30;;;;;;5033254;28;20021;-73
2022/06/25 11:04:52;;;;;;;1.70;0.90;;;30.00;47.00;;;;;;5028855;28;20029;-72
2022/06/25 11:07:25;;;;;;;1.92;0.80;;;29.90;45.60;;;;;;5021509;28;20517;-73
2022/06/25 11:09:58;;;;;;;2.87;1.83;;;30.00;46.00;;;;;;5042999;28;20056;-71
2022/06/25 11:12:34;;;;;;;5.35;1.13;;;30.00;47.30;;;;;;5024205;28;20018;-69
2022/06/25 11:15:07;;;;;;;2.13;0.93;;;30.10;47.00;;;;;;5014172;28;20028;-71
2022/06/25 11:17:34;;;;;;;1.00;0.77;;;30.20;47.10;;;;;;5030376;28;20499;-74
2022/06/25 11:20:09;;;;;;;1.58;0.90;;;30.40;48.40;;;;;;5031608;28;20485;-72
2022/06/25 11:22:45;;;;;;;1.05;0.85;;;30.50;46.60;;;;;;5032884;28;20013;-70
2022/06/25 11:30:40;;;;;;;0.88;0.68;;;30.70;46.40;;;;;;5017081;28;20036;-73
2022/06/25 11:33:09;;;;;;;1.23;0.80;;;30.80;47.10;;;;;;5029471;28;20352;-71
2022/06/25 11:35:44;;;;;;;0.85;0.75;;;30.90;45.70;;;;;;5018385;28;20026;-71
2022/06/25 11:38:14;;;;;;;1.15;0.70;;;30.90;46.00;;;;;;5031125;28;20503;-74
2022/06/25 11:40:40;;;;;;;1.70;0.85;;;31.00;45.20;;;;;;5032714;28;20026;-70
2022/06/25 11:43:07;;;;;;;2.30;0.80;;;31.00;46.50;;;;;;5032794;28;20028;-73
2022/06/25 11:45:33;;;;;;;1.23;0.80;;;31.10;45.90;;;;;;5031220;28;20549;-72
2022/06/25 11:47:58;;;;;;;1.65;0.80;;;31.20;47.10;;;;;;5032573;28;20057;-73
2022/06/25 11:50:24;;;;;;;2.85;1.10;;;31.40;48.00;;;;;;5032673;28;20030;-68
2022/06/25 11:52:50;;;;;;;0.93;0.60;;;31.40;47.70;;;;;;5032593;28;20075;-73
2022/06/25 11:55:16;;;;;;;2.92;1.10;;;31.50;46.20;;;;;;5032605;28;20033;-74
2022/06/25 11:57:43;;;;;;;1.13;0.82;;;31.50;44.10;;;;;;5032590;28;20097;-82
2022/06/25 12:00:13;;;;;;;2.17;1.00;;;31.50;43.90;;;;;;5033397;28;20009;-77
2022/06/25 12:02:43;;;;;;;1.67;0.60;;;31.40;41.80;;;;;;5036962;28;20017;-79
2022/06/25 12:05:10;;;;;;;0.50;0.50;;;31.40;43.20;;;;;;5031908;28;20027;-83
2022/06/25 12:07:37;;;;;;;0.73;0.65;;;31.30;44.40;;;;;;5032713;28;20076;-74
2022/06/25 12:10:10;;;;;;;0.50;0.50;;;31.30;44.00;;;;;;5032985;28;20084;-72
2022/06/25 12:12:40;;;;;;;0.82;0.60;;;31.30;45.70;;;;;;5031438;28;20028;-73
2022/06/25 12:15:11;;;;;;;0.70;0.43;;;31.30;43.60;;;;;;5032117;28;20526;-74
2022/06/25 12:17:38;;;;;;;0.93;0.60;;;31.30;46.10;;;;;;5032330;28;20017;-72
2022/06/25 12:20:12;;;;;;;2.50;0.80;;;31.30;43.80;;;;;;5031079;28;20067;-75
2022/06/25 12:22:41;;;;;;;1.27;0.90;;;31.30;43.60;;;;;;5031100;28;20018;-73
2022/06/25 12:25:09;;;;;;;2.33;0.65;;;31.40;45.70;;;;;;5032373;28;20404;-77
2022/06/25 12:27:45;;;;;;;1.55;0.70;;;31.40;45.90;;;;;;5032313;28;20044;-72
2022/06/25 12:30:12;;;;;;;0.73;0.63;;;31.40;44.90;;;;;;5032188;28;20013;-72
2022/06/25 12:32:39;;;;;;;2.13;0.82;;;31.50;45.70;;;;;;5032080;28;20099;-74
2022/06/25 12:35:26;;;;;;;1.38;0.70;;;31.60;45.70;;;;;;5032088;28;20028;-72
2022/06/25 12:38:01;;;;;;;0.90;0.77;;;31.60;43.90;;;;;;5032045;28;20074;-69
2022/06/25 12:40:28;;;;;;;1.48;0.75;;;31.70;44.20;;;;;;5032203;28;20092;-72
2022/06/25 12:42:59;;;;;;;1.30;0.70;;;31.80;45.00;;;;;;5032054;28;20018;-74
2022/06/25 12:45:25;;;;;;;1.08;0.98;;;31.80;43.90;;;;;;5031810;28;20041;-77
2022/06/25 12:47:52;;;;;;;1.67;0.65;;;31.80;42.90;;;;;;5035806;28;20391;-74
2022/06/25 12:50:32;;;;;;;1.40;1.00;;;31.80;42.90;;;;;;5035826;28;20017;-72
2022/06/25 12:53:16;;;;;;;1.60;0.90;;;31.80;43.70;;;;;;5035896;28;20075;-72
2022/06/25 12:55:49;;;;;;;1.20;0.63;;;31.80;44.60;;;;;;5035588;28;20108;-72
2022/06/25 12:58:16;;;;;;;3.05;0.88;;;31.80;41.90;;;;;;5035713;28;20029;-76
2022/06/25 13:00:46;;;;;;;3.95;0.52;;;31.80;43.00;;;;;;5035641;28;20139;-76
2022/06/25 13:03:12;;;;;;;6.20;1.13;;;31.90;44.40;;;;;;5035655;28;20013;-72
2022/06/25 13:05:38;;;;;;;1.40;0.75;;;31.80;39.90;;;;;;5034430;28;20430;-70
2022/06/25 13:08:05;;;;;;;1.08;0.60;;;31.70;40.70;;;;;;5035442;28;20021;-74
2022/06/25 13:10:32;;;;;;;2.22;0.68;;;31.50;41.10;;;;;;5035337;28;20115;-73
2022/06/25 13:12:58;;;;;;;1.90;0.77;;;31.40;40.90;;;;;;5035361;28;20036;-74
2022/06/25 13:15:25;;;;;;;1.25;1.00;;;31.40;42.60;;;;;;5035409;28;20022;-72